sensor_id;sensor_type;location;lat;lon;timestamp;temperature;humidity
42743;DHT22;28397;44.552;-0.848;2023-06-26T00:01:41;22.20;99.90
42743;DHT22;28397;44.552;-0.848;2023-06-26T00:04:08;22.20;99.90
42743;DHT22;28397;44.552;-0.848;2023-06-26T00:06:40;22.20;99.90
42743;DHT22;28397;44.552;-0.848;2023-06-26T00:09:06;22.20;99.90
42743;DHT22;28397;44.552;-0.848;2023-06-26T00:11:32;22.10;99.90
42743;DHT22;28397;44.552;-0.848;2023-06-26T00:14:01;22.10;99.90
42743;DHT22;28397;44.552;-0.848;2023-06-26T00:16:27;22.10;99.90
42743;DHT22;28397;44.552;-0.848;2023-06-26T00:18:53;22.00;99.90
42743;DHT22;28397;44.552;-0.848;2023-06-26T00:21:19;22.00;99.90
42743;DHT22;28397;44.552;-0.848;2023-06-26T00:23:45;22.00;99.90
42743;DHT22;28397;44.552;-0.848;2023-06-26T00:26:11;21.90;99.90
42743;DHT22;28397;44.552;-0.848;2023-06-26T00:28:37;21.90;99.90
42743;DHT22;28397;44.552;-0.848;2023-06-26T00:31:03;21.90;99.90
42743;DHT22;28397;44.552;-0.848;2023-06-26T00:33:29;21.90;99.90
42743;DHT22;28397;44.552;-0.848;2023-06-26T00:35:54;22.10;99.90
42743;DHT22;28397;44.552;-0.848;2023-06-26T00:38:20;22.20;99.90
42743;DHT22;28397;44.552;-0.848;2023-06-26T00:40:46;22.20;99.90
42743;DHT22;28397;44.552;-0.848;2023-06-26T00:43:12;22.30;99.90
42743;DHT22;28397;44.552;-0.848;2023-06-26T00:45:38;22.30;99.90
42743;DHT22;28397;44.552;-0.848;2023-06-26T00:48:04;22.30;99.90
42743;DHT22;28397;44.552;-0.848;2023-06-26T00:50:31;22.40;99.90
42743;DHT22;28397;44.552;-0.848;2023-06-26T00:52:57;22.40;99.90
42743;DHT22;28397;44.552;-0.848;2023-06-26T00:55:26;22.40;99.90
42743;DHT22;28397;44.552;-0.848;2023-06-26T00:57:53;22.40;99.90
42743;DHT22;28397;44.552;-0.848;2023-06-26T01:00:20;22.50;99.90
42743;DHT22;28397;44.552;-0.848;2023-06-26T01:02:45;22.40;99.90
42743;DHT22;28397;44.552;-0.848;2023-06-26T01:05:13;22.50;99.90
42743;DHT22;28397;44.552;-0.848;2023-06-26T01:07:48;22.30;99.90
42743;DHT22;28397;44.552;-0.848;2023-06-26T01:10:14;22.20;99.90
42743;DHT22;28397;44.552;-0.848;2023-06-26T01:12:40;22.20;99.90
42743;DHT22;28397;44.552;-0.848;2023-06-26T01:15:06;22.00;99.90
42743;DHT22;28397;44.552;-0.848;2023-06-26T01:17:32;22.00;99.90
42743;DHT22;28397;44.552;-0.848;2023-06-26T01:19:59;22.00;99.90
42743;DHT22;28397;44.552;-0.848;2023-06-26T01:27:49;21.80;99.90
42743;DHT22;28397;44.552;-0.848;2023-06-26T01:30:16;21.80;99.90
42743;DHT22;28397;44.552;-0.848;2023-06-26T01:32:44;21.80;99.90
42743;DHT22;28397;44.552;-0.848;2023-06-26T01:35:11;21.70;99.90
42743;DHT22;28397;44.552;-0.848;2023-06-26T01:37:36;21.70;99.90
42743;DHT22;28397;44.552;-0.848;2023-06-26T01:40:02;21.70;99.90
42743;DHT22;28397;44.552;-0.848;2023-06-26T01:42:32;21.70;99.90
42743;DHT22;28397;44.552;-0.848;2023-06-26T01:48:01;21.70;99.90
42743;DHT22;28397;44.552;-0.848;2023-06-26T01:50:29;21.90;99.90
42743;DHT22;28397;44.552;-0.848;2023-06-26T01:53:04;22.00;99.90
42743;DHT22;28397;44.552;-0.848;2023-06-26T01:58:01;22.10;99.90
42743;DHT22;28397;44.552;-0.848;2023-06-26T02:00:28;22.20;99.90
42743;DHT22;28397;44.552;-0.848;2023-06-26T02:02:54;22.20;99.90
42743;DHT22;28397;44.552;-0.848;2023-06-26T02:05:20;22.20;99.90
42743;DHT22;28397;44.552;-0.848;2023-06-26T02:07:45;22.20;99.90
42743;DHT22;28397;44.552;-0.848;2023-06-26T02:10:11;22.30;99.90
42743;DHT22;28397;44.552;-0.848;2023-06-26T02:12:37;22.20;99.90
42743;DHT22;28397;44.552;-0.848;2023-06-26T02:15:03;22.10;99.90
42743;DHT22;28397;44.552;-0.848;2023-06-26T02:17:30;22.20;99.90
42743;DHT22;28397;44.552;-0.848;2023-06-26T02:19:56;22.20;99.90
42743;DHT22;28397;44.552;-0.848;2023-06-26T02:22:22;22.20;99.90
42743;DHT22;28397;44.552;-0.848;2023-06-26T02:24:47;22.10;99.90
42743;DHT22;28397;44.552;-0.848;2023-06-26T02:27:13;22.10;99.90
42743;DHT22;28397;44.552;-0.848;2023-06-26T02:29:40;22.00;99.90
42743;DHT22;28397;44.552;-0.848;2023-06-26T02:32:06;21.90;99.90
42743;DHT22;28397;44.552;-0.848;2023-06-26T02:34:32;21.80;99.90
42743;DHT22;28397;44.552;-0.848;2023-06-26T02:36:58;21.80;99.90
42743;DHT22;28397;44.552;-0.848;2023-06-26T02:39:26;21.70;99.90
42743;DHT22;28397;44.552;-0.848;2023-06-26T02:41:52;21.70;99.90
42743;DHT22;28397;44.552;-0.848;2023-06-26T02:44:17;21.70;99.90
42743;DHT22;28397;44.552;-0.848;2023-06-26T02:46:43;21.70;99.90
42743;DHT22;28397;44.552;-0.848;2023-06-26T02:49:09;21.70;99.90
42743;DHT22;28397;44.552;-0.848;2023-06-26T02:51:35;21.60;99.90
42743;DHT22;28397;44.552;-0.848;2023-06-26T02:54:01;21.60;99.90
42743;DHT22;28397;44.552;-0.848;2023-06-26T02:56:27;21.60;99.90
42743;DHT22;28397;44.552;-0.848;2023-06-26T02:58:56;21.60;99.90
42743;DHT22;28397;44.552;-0.848;2023-06-26T03:01:21;21.60;99.90
42743;DHT22;28397;44.552;-0.848;2023-06-26T03:03:47;21.60;99.90
42743;DHT22;28397;44.552;-0.848;2023-06-26T03:06:14;21.70;99.90
42743;DHT22;28397;44.552;-0.848;2023-06-26T03:08:40;21.80;99.90
42743;DHT22;28397;44.552;-0.848;2023-06-26T03:11:09;21.80;99.90
42743;DHT22;28397;44.552;-0.848;2023-06-26T03:13:36;21.90;99.90
42743;DHT22;28397;44.552;-0.848;2023-06-26T03:16:05;22.00;99.90
42743;DHT22;28397;44.552;-0.848;2023-06-26T03:18:30;22.00;99.90
42743;DHT22;28397;44.552;-0.848;2023-06-26T03:20:56;22.00;99.90
42743;DHT22;28397;44.552;-0.848;2023-06-26T03:23:23;22.00;99.90
42743;DHT22;28397;44.552;-0.848;2023-06-26T03:25:50;22.00;99.90
42743;DHT22;28397;44.552;-0.848;2023-06-26T03:28:16;22.10;99.90
42743;DHT22;28397;44.552;-0.848;2023-06-26T03:30:42;22.10;99.90
42743;DHT22;28397;44.552;-0.848;2023-06-26T03:33:08;22.00;99.90
42743;DHT22;28397;44.552;-0.848;2023-06-26T03:35:33;22.00;99.90
42743;DHT22;28397;44.552;-0.848;2023-06-26T03:37:59;22.00;99.90
42743;DHT22;28397;44.552;-0.848;2023-06-26T03:40:26;21.80;99.90
42743;DHT22;28397;44.552;-0.848;2023-06-26T03:42:52;21.80;99.90
42743;DHT22;28397;44.552;-0.848;2023-06-26T03:45:18;21.60;99.90
42743;DHT22;28397;44.552;-0.848;2023-06-26T03:47:44;21.60;99.90
42743;DHT22;28397;44.552;-0.848;2023-06-26T03:50:12;21.50;99.90
42743;DHT22;28397;44.552;-0.848;2023-06-26T03:52:38;21.40;99.90
42743;DHT22;28397;44.552;-0.848;2023-06-26T03:55:04;21.40;99.90
42743;DHT22;28397;44.552;-0.848;2023-06-26T03:57:29;21.30;99.90
42743;DHT22;28397;44.552;-0.848;2023-06-26T03:59:55;21.30;99.90
42743;DHT22;28397;44.552;-0.848;2023-06-26T04:02:21;21.30;99.90
42743;DHT22;28397;44.552;-0.848;2023-06-26T04:04:46;21.30;99.90
42743;DHT22;28397;44.552;-0.848;2023-06-26T04:07:12;21.30;99.90
42743;DHT22;28397;44.552;-0.848;2023-06-26T04:09:38;21.30;99.90
42743;DHT22;28397;44.552;-0.848;2023-06-26T04:12:04;21.30;99.90
42743;DHT22;28397;44.552;-0.848;2023-06-26T04:14:29;21.30;99.90
42743;DHT22;28397;44.552;-0.848;2023-06-26T04:16:55;21.30;99.90
42743;DHT22;28397;44.552;-0.848;2023-06-26T04:19:23;21.30;99.90
42743;DHT22;28397;44.552;-0.848;2023-06-26T04:21:48;21.40;99.90
42743;DHT22;28397;44.552;-0.848;2023-06-26T04:24:14;21.50;99.90
42743;DHT22;28397;44.552;-0.848;2023-06-26T04:26:40;21.60;99.90
42743;DHT22;28397;44.552;-0.848;2023-06-26T04:29:07;21.60;99.90
42743;DHT22;28397;44.552;-0.848;2023-06-26T04:31:32;21.70;99.90
42743;DHT22;28397;44.552;-0.848;2023-06-26T04:33:58;21.70;99.90
42743;DHT22;28397;44.552;-0.848;2023-06-26T04:36:25;21.70;99.90
42743;DHT22;28397;44.552;-0.848;2023-06-26T04:38:54;21.80;99.90
42743;DHT22;28397;44.552;-0.848;2023-06-26T04:41:21;21.70;99.90
42743;DHT22;28397;44.552;-0.848;2023-06-26T04:43:46;21.70;99.90
42743;DHT22;28397;44.552;-0.848;2023-06-26T04:46:12;21.70;99.90
42743;DHT22;28397;44.552;-0.848;2023-06-26T04:48:38;21.60;99.90
42743;DHT22;28397;44.552;-0.848;2023-06-26T04:51:03;21.60;99.90
42743;DHT22;28397;44.552;-0.848;2023-06-26T04:53:29;21.50;99.90
42743;DHT22;28397;44.552;-0.848;2023-06-26T04:55:55;21.40;99.90
42743;DHT22;28397;44.552;-0.848;2023-06-26T04:58:21;21.30;99.90
42743;DHT22;28397;44.552;-0.848;2023-06-26T05:00:47;21.30;99.90
42743;DHT22;28397;44.552;-0.848;2023-06-26T05:03:13;21.20;99.90
42743;DHT22;28397;44.552;-0.848;2023-06-26T05:05:39;21.10;99.90
42743;DHT22;28397;44.552;-0.848;2023-06-26T05:10:41;21.00;99.90
42743;DHT22;28397;44.552;-0.848;2023-06-26T05:13:06;20.90;99.90
42743;DHT22;28397;44.552;-0.848;2023-06-26T05:15:32;21.00;99.90
42743;DHT22;28397;44.552;-0.848;2023-06-26T05:17:58;21.00;99.90
42743;DHT22;28397;44.552;-0.848;2023-06-26T05:20:23;20.90;99.90
42743;DHT22;28397;44.552;-0.848;2023-06-26T05:22:49;21.00;99.90
42743;DHT22;28397;44.552;-0.848;2023-06-26T05:25:15;21.00;99.90
42743;DHT22;28397;44.552;-0.848;2023-06-26T05:27:41;20.90;99.90
42743;DHT22;28397;44.552;-0.848;2023-06-26T05:30:08;20.90;99.90
42743;DHT22;28397;44.552;-0.848;2023-06-26T05:32:35;20.90;99.90
42743;DHT22;28397;44.552;-0.848;2023-06-26T05:35:03;20.90;99.90
42743;DHT22;28397;44.552;-0.848;2023-06-26T05:37:31;21.00;99.90
42743;DHT22;28397;44.552;-0.848;2023-06-26T05:39:57;21.10;99.90
42743;DHT22;28397;44.552;-0.848;2023-06-26T05:42:23;21.20;99.90
42743;DHT22;28397;44.552;-0.848;2023-06-26T05:44:49;21.30;99.90
42743;DHT22;28397;44.552;-0.848;2023-06-26T05:47:15;21.30;99.90
42743;DHT22;28397;44.552;-0.848;2023-06-26T05:49:41;21.40;99.90
42743;DHT22;28397;44.552;-0.848;2023-06-26T05:52:07;21.40;99.90
42743;DHT22;28397;44.552;-0.848;2023-06-26T05:54:33;21.50;99.90
42743;DHT22;28397;44.552;-0.848;2023-06-26T05:56:59;21.50;99.90
42743;DHT22;28397;44.552;-0.848;2023-06-26T05:59:26;21.50;99.90
42743;DHT22;28397;44.552;-0.848;2023-06-26T06:01:52;21.50;99.90
42743;DHT22;28397;44.552;-0.848;2023-06-26T06:04:18;21.50;99.90
42743;DHT22;28397;44.552;-0.848;2023-06-26T06:06:44;21.50;99.90
42743;DHT22;28397;44.552;-0.848;2023-06-26T06:09:09;21.40;99.90
42743;DHT22;28397;44.552;-0.848;2023-06-26T06:11:35;21.30;99.90
42743;DHT22;28397;44.552;-0.848;2023-06-26T06:14:01;21.20;99.90
42743;DHT22;28397;44.552;-0.848;2023-06-26T06:16:26;21.30;99.90
42743;DHT22;28397;44.552;-0.848;2023-06-26T06:18:55;21.30;99.90
42743;DHT22;28397;44.552;-0.848;2023-06-26T06:21:21;21.30;99.90
42743;DHT22;28397;44.552;-0.848;2023-06-26T06:23:46;21.20;99.90
42743;DHT22;28397;44.552;-0.848;2023-06-26T06:26:12;21.30;99.90
42743;DHT22;28397;44.552;-0.848;2023-06-26T06:28:39;21.40;99.90
42743;DHT22;28397;44.552;-0.848;2023-06-26T06:31:05;21.30;99.90
42743;DHT22;28397;44.552;-0.848;2023-06-26T06:33:30;21.30;99.90
42743;DHT22;28397;44.552;-0.848;2023-06-26T06:35:56;21.30;99.90
42743;DHT22;28397;44.552;-0.848;2023-06-26T06:38:22;21.30;99.90
42743;DHT22;28397;44.552;-0.848;2023-06-26T06:40:48;21.20;99.90
42743;DHT22;28397;44.552;-0.848;2023-06-26T06:43:14;21.20;99.90
42743;DHT22;28397;44.552;-0.848;2023-06-26T06:45:40;21.20;99.90
42743;DHT22;28397;44.552;-0.848;2023-06-26T06:48:06;21.20;99.90
42743;DHT22;28397;44.552;-0.848;2023-06-26T06:50:31;21.30;99.90
42743;DHT22;28397;44.552;-0.848;2023-06-26T06:52:57;21.40;99.90
42743;DHT22;28397;44.552;-0.848;2023-06-26T06:55:23;21.60;99.90
42743;DHT22;28397;44.552;-0.848;2023-06-26T06:57:49;21.60;99.90
42743;DHT22;28397;44.552;-0.848;2023-06-26T07:00:16;21.70;99.90
42743;DHT22;28397;44.552;-0.848;2023-06-26T07:02:45;21.60;99.90
42743;DHT22;28397;44.552;-0.848;2023-06-26T07:05:12;21.70;99.90
42743;DHT22;28397;44.552;-0.848;2023-06-26T07:07:38;21.70;99.90
42743;DHT22;28397;44.552;-0.848;2023-06-26T07:10:12;21.80;99.90
42743;DHT22;28397;44.552;-0.848;2023-06-26T07:12:38;21.80;99.90
42743;DHT22;28397;44.552;-0.848;2023-06-26T07:15:05;21.80;99.90
42743;DHT22;28397;44.552;-0.848;2023-06-26T07:17:32;21.80;99.90
42743;DHT22;28397;44.552;-0.848;2023-06-26T07:19:58;21.80;99.90
42743;DHT22;28397;44.552;-0.848;2023-06-26T07:22:24;21.80;99.90
42743;DHT22;28397;44.552;-0.848;2023-06-26T07:24:50;21.80;99.90
42743;DHT22;28397;44.552;-0.848;2023-06-26T07:27:17;21.70;99.90
42743;DHT22;28397;44.552;-0.848;2023-06-26T07:29:44;21.60;99.90
42743;DHT22;28397;44.552;-0.848;2023-06-26T07:32:10;21.60;99.90
42743;DHT22;28397;44.552;-0.848;2023-06-26T07:34:36;21.60;99.90
42743;DHT22;28397;44.552;-0.848;2023-06-26T07:37:01;21.50;99.90
42743;DHT22;28397;44.552;-0.848;2023-06-26T07:39:27;21.50;99.90
42743;DHT22;28397;44.552;-0.848;2023-06-26T07:41:53;21.60;99.90
42743;DHT22;28397;44.552;-0.848;2023-06-26T07:44:18;21.60;99.90
42743;DHT22;28397;44.552;-0.848;2023-06-26T07:46:44;21.60;99.90
42743;DHT22;28397;44.552;-0.848;2023-06-26T07:49:11;21.60;99.90
42743;DHT22;28397;44.552;-0.848;2023-06-26T07:51:37;21.70;99.90
42743;DHT22;28397;44.552;-0.848;2023-06-26T07:54:02;21.80;99.90
42743;DHT22;28397;44.552;-0.848;2023-06-26T07:56:28;21.80;99.90
42743;DHT22;28397;44.552;-0.848;2023-06-26T07:58:54;21.80;99.90
42743;DHT22;28397;44.552;-0.848;2023-06-26T08:01:20;21.80;99.90
42743;DHT22;28397;44.552;-0.848;2023-06-26T08:03:45;21.90;99.90
42743;DHT22;28397;44.552;-0.848;2023-06-26T08:06:11;22.10;99.90
42743;DHT22;28397;44.552;-0.848;2023-06-26T08:08:37;22.20;99.90
42743;DHT22;28397;44.552;-0.848;2023-06-26T08:11:02;22.30;99.90
42743;DHT22;28397;44.552;-0.848;2023-06-26T08:13:28;22.50;99.90
42743;DHT22;28397;44.552;-0.848;2023-06-26T08:15:53;22.60;99.90
42743;DHT22;28397;44.552;-0.848;2023-06-26T08:18:20;22.60;99.90
42743;DHT22;28397;44.552;-0.848;2023-06-26T08:20:46;22.70;99.90
42743;DHT22;28397;44.552;-0.848;2023-06-26T08:23:11;22.80;99.90
42743;DHT22;28397;44.552;-0.848;2023-06-26T08:25:37;22.90;99.90
42743;DHT22;28397;44.552;-0.848;2023-06-26T08:28:03;22.90;99.90
42743;DHT22;28397;44.552;-0.848;2023-06-26T08:30:29;22.90;99.90
42743;DHT22;28397;44.552;-0.848;2023-06-26T08:32:57;22.90;99.90
42743;DHT22;28397;44.552;-0.848;2023-06-26T08:35:23;22.90;99.90
42743;DHT22;28397;44.552;-0.848;2023-06-26T08:37:49;22.90;99.90
42743;DHT22;28397;44.552;-0.848;2023-06-26T08:40:17;22.70;99.90
42743;DHT22;28397;44.552;-0.848;2023-06-26T08:42:44;22.70;99.90
42743;DHT22;28397;44.552;-0.848;2023-06-26T08:45:10;22.70;99.90
42743;DHT22;28397;44.552;-0.848;2023-06-26T08:47:37;22.70;99.90
42743;DHT22;28397;44.552;-0.848;2023-06-26T08:52:44;22.70;99.90
42743;DHT22;28397;44.552;-0.848;2023-06-26T08:55:12;22.70;99.90
42743;DHT22;28397;44.552;-0.848;2023-06-26T08:57:40;22.70;99.90
42743;DHT22;28397;44.552;-0.848;2023-06-26T09:00:06;22.80;99.90
42743;DHT22;28397;44.552;-0.848;2023-06-26T09:02:35;22.70;99.90
42743;DHT22;28397;44.552;-0.848;2023-06-26T09:05:02;22.80;99.90
42743;DHT22;28397;44.552;-0.848;2023-06-26T09:07:29;22.70;99.90
42743;DHT22;28397;44.552;-0.848;2023-06-26T09:09:54;22.70;99.90
42743;DHT22;28397;44.552;-0.848;2023-06-26T09:12:20;22.80;99.90
42743;DHT22;28397;44.552;-0.848;2023-06-26T09:14:46;22.90;99.90
42743;DHT22;28397;44.552;-0.848;2023-06-26T09:17:13;23.00;99.90
42743;DHT22;28397;44.552;-0.848;2023-06-26T09:19:39;23.00;99.90
42743;DHT22;28397;44.552;-0.848;2023-06-26T09:22:14;23.20;99.90
42743;DHT22;28397;44.552;-0.848;2023-06-26T09:24:41;23.50;99.90
42743;DHT22;28397;44.552;-0.848;2023-06-26T09:27:07;23.50;99.90
42743;DHT22;28397;44.552;-0.848;2023-06-26T09:29:33;23.60;99.90
42743;DHT22;28397;44.552;-0.848;2023-06-26T09:31:59;23.80;99.90
42743;DHT22;28397;44.552;-0.848;2023-06-26T09:34:32;23.90;99.90
42743;DHT22;28397;44.552;-0.848;2023-06-26T09:36:58;23.90;99.90
42743;DHT22;28397;44.552;-0.848;2023-06-26T09:39:24;23.90;99.90
42743;DHT22;28397;44.552;-0.848;2023-06-26T09:41:50;24.00;99.90
42743;DHT22;28397;44.552;-0.848;2023-06-26T09:44:16;24.00;99.90
42743;DHT22;28397;44.552;-0.848;2023-06-26T09:46:45;24.00;99.90
42743;DHT22;28397;44.552;-0.848;2023-06-26T09:49:11;23.80;99.90
42743;DHT22;28397;44.552;-0.848;2023-06-26T09:51:39;24.00;99.90
42743;DHT22;28397;44.552;-0.848;2023-06-26T09:54:06;24.00;99.90
42743;DHT22;28397;44.552;-0.848;2023-06-26T09:56:33;23.70;99.90
42743;DHT22;28397;44.552;-0.848;2023-06-26T09:59:00;23.60;99.90
42743;DHT22;28397;44.552;-0.848;2023-06-26T10:01:30;23.60;99.90
42743;DHT22;28397;44.552;-0.848;2023-06-26T10:03:56;23.60;99.90
42743;DHT22;28397;44.552;-0.848;2023-06-26T10:06:28;23.70;99.90
42743;DHT22;28397;44.552;-0.848;2023-06-26T10:08:58;23.60;99.90
42743;DHT22;28397;44.552;-0.848;2023-06-26T10:11:25;23.50;99.90
42743;DHT22;28397;44.552;-0.848;2023-06-26T10:13:55;23.60;99.90
42743;DHT22;28397;44.552;-0.848;2023-06-26T10:16:25;23.60;99.90
42743;DHT22;28397;44.552;-0.848;2023-06-26T10:18:54;23.80;99.90
42743;DHT22;28397;44.552;-0.848;2023-06-26T10:21:22;23.70;99.90
42743;DHT22;28397;44.552;-0.848;2023-06-26T10:23:50;23.80;99.90
42743;DHT22;28397;44.552;-0.848;2023-06-26T10:26:18;24.00;99.90
42743;DHT22;28397;44.552;-0.848;2023-06-26T10:28:47;24.00;99.90
42743;DHT22;28397;44.552;-0.848;2023-06-26T10:31:21;24.00;99.90
42743;DHT22;28397;44.552;-0.848;2023-06-26T10:33:48;24.00;99.90
42743;DHT22;28397;44.552;-0.848;2023-06-26T10:36:27;24.00;99.90
42743;DHT22;28397;44.552;-0.848;2023-06-26T10:38:58;24.20;99.90
42743;DHT22;28397;44.552;-0.848;2023-06-26T10:41:25;24.50;99.90
42743;DHT22;28397;44.552;-0.848;2023-06-26T10:44:07;24.70;99.90
42743;DHT22;28397;44.552;-0.848;2023-06-26T10:46:52;24.60;99.90
42743;DHT22;28397;44.552;-0.848;2023-06-26T10:49:25;24.70;99.90
42743;DHT22;28397;44.552;-0.848;2023-06-26T10:51:52;24.70;99.90
42743;DHT22;28397;44.552;-0.848;2023-06-26T10:54:20;25.00;99.90
42743;DHT22;28397;44.552;-0.848;2023-06-26T10:56:54;25.00;99.90
42743;DHT22;28397;44.552;-0.848;2023-06-26T10:59:27;25.00;99.90
42743;DHT22;28397;44.552;-0.848;2023-06-26T11:02:05;25.20;99.90
42743;DHT22;28397;44.552;-0.848;2023-06-26T11:04:39;25.20;99.90
42743;DHT22;28397;44.552;-0.848;2023-06-26T11:10:17;25.20;99.90
42743;DHT22;28397;44.552;-0.848;2023-06-26T11:12:43;25.30;99.90
42743;DHT22;28397;44.552;-0.848;2023-06-26T11:15:14;25.30;99.90
42743;DHT22;28397;44.552;-0.848;2023-06-26T11:17:43;25.20;99.90
42743;DHT22;28397;44.552;-0.848;2023-06-26T11:20:14;25.20;99.90
42743;DHT22;28397;44.552;-0.848;2023-06-26T11:22:42;25.20;99.90
42743;DHT22;28397;44.552;-0.848;2023-06-26T11:25:10;25.20;99.90
42743;DHT22;28397;44.552;-0.848;2023-06-26T11:27:42;25.10;99.90
42743;DHT22;28397;44.552;-0.848;2023-06-26T11:30:10;25.10;99.90
42743;DHT22;28397;44.552;-0.848;2023-06-26T11:32:37;25.00;99.90
42743;DHT22;28397;44.552;-0.848;2023-06-26T11:35:04;24.80;99.90
42743;DHT22;28397;44.552;-0.848;2023-06-26T11:37:31;24.80;99.90
42743;DHT22;28397;44.552;-0.848;2023-06-26T11:39:57;25.00;99.90
42743;DHT22;28397;44.552;-0.848;2023-06-26T11:42:23;24.80;99.90
42743;DHT22;28397;44.552;-0.848;2023-06-26T11:44:51;24.90;99.90
42743;DHT22;28397;44.552;-0.848;2023-06-26T11:47:18;24.80;99.90
42743;DHT22;28397;44.552;-0.848;2023-06-26T11:49:49;24.70;99.90
42743;DHT22;28397;44.552;-0.848;2023-06-26T11:52:16;24.80;99.90
42743;DHT22;28397;44.552;-0.848;2023-06-26T11:54:42;24.80;99.90
42743;DHT22;28397;44.552;-0.848;2023-06-26T11:57:08;25.30;99.90
42743;DHT22;28397;44.552;-0.848;2023-06-26T11:59:40;25.30;99.90
42743;DHT22;28397;44.552;-0.848;2023-06-26T12:02:10;25.30;99.90
42743;DHT22;28397;44.552;-0.848;2023-06-26T12:04:38;25.40;99.90
42743;DHT22;28397;44.552;-0.848;2023-06-26T12:07:06;25.40;99.90
42743;DHT22;28397;44.552;-0.848;2023-06-26T12:09:38;25.40;99.90
42743;DHT22;28397;44.552;-0.848;2023-06-26T12:12:04;25.60;99.90
42743;DHT22;28397;44.552;-0.848;2023-06-26T12:14:31;25.60;99.90
42743;DHT22;28397;44.552;-0.848;2023-06-26T12:17:05;25.50;99.90
42743;DHT22;28397;44.552;-0.848;2023-06-26T12:19:31;25.60;99.90
42743;DHT22;28397;44.552;-0.848;2023-06-26T12:21:57;25.70;99.90
42743;DHT22;28397;44.552;-0.848;2023-06-26T12:24:24;25.60;99.90
42743;DHT22;28397;44.552;-0.848;2023-06-26T12:26:54;25.70;99.90
42743;DHT22;28397;44.552;-0.848;2023-06-26T12:29:32;25.80;99.90
42743;DHT22;28397;44.552;-0.848;2023-06-26T12:31:59;25.50;99.90
42743;DHT22;28397;44.552;-0.848;2023-06-26T12:34:32;25.30;99.90
42743;DHT22;28397;44.552;-0.848;2023-06-26T12:37:07;25.40;99.90
42743;DHT22;28397;44.552;-0.848;2023-06-26T12:39:52;25.40;99.90
42743;DHT22;28397;44.552;-0.848;2023-06-26T12:42:26;25.30;99.90
42743;DHT22;28397;44.552;-0.848;2023-06-26T12:44:53;25.30;99.90
42743;DHT22;28397;44.552;-0.848;2023-06-26T12:47:27;25.50;99.90
42743;DHT22;28397;44.552;-0.848;2023-06-26T12:49:54;25.70;99.90
42743;DHT22;28397;44.552;-0.848;2023-06-26T12:52:20;25.80;99.90
42743;DHT22;28397;44.552;-0.848;2023-06-26T12:54:47;26.00;99.90
42743;DHT22;28397;44.552;-0.848;2023-06-26T12:57:16;25.90;99.90
42743;DHT22;28397;44.552;-0.848;2023-06-26T12:59:42;25.70;99.90
42743;DHT22;28397;44.552;-0.848;2023-06-26T13:02:09;25.70;99.90
42743;DHT22;28397;44.552;-0.848;2023-06-26T13:04:36;25.60;99.90
42743;DHT22;28397;44.552;-0.848;2023-06-26T13:07:05;25.80;99.90
42743;DHT22;28397;44.552;-0.848;2023-06-26T13:09:33;25.90;99.90
42743;DHT22;28397;44.552;-0.848;2023-06-26T13:11:59;26.00;99.90
42743;DHT22;28397;44.552;-0.848;2023-06-26T13:14:24;26.10;99.90
42743;DHT22;28397;44.552;-0.848;2023-06-26T13:16:50;26.20;99.90
42743;DHT22;28397;44.552;-0.848;2023-06-26T13:19:16;26.50;99.90
42743;DHT22;28397;44.552;-0.848;2023-06-26T13:21:42;26.40;99.90
42743;DHT22;28397;44.552;-0.848;2023-06-26T13:24:07;26.50;99.90
42743;DHT22;28397;44.552;-0.848;2023-06-26T13:26:33;26.60;99.90
42743;DHT22;28397;44.552;-0.848;2023-06-26T13:28:59;26.70;99.90
42743;DHT22;28397;44.552;-0.848;2023-06-26T13:31:25;26.50;99.90
42743;DHT22;28397;44.552;-0.848;2023-06-26T13:33:51;26.40;99.90
42743;DHT22;28397;44.552;-0.848;2023-06-26T13:36:19;26.50;99.90
42743;DHT22;28397;44.552;-0.848;2023-06-26T13:38:46;26.40;99.90
42743;DHT22;28397;44.552;-0.848;2023-06-26T13:41:15;26.30;99.90
42743;DHT22;28397;44.552;-0.848;2023-06-26T13:43:40;26.20;99.90
42743;DHT22;28397;44.552;-0.848;2023-06-26T13:46:07;26.30;99.90
42743;DHT22;28397;44.552;-0.848;2023-06-26T13:48:32;26.30;99.90
42743;DHT22;28397;44.552;-0.848;2023-06-26T13:50:59;26.10;99.90
42743;DHT22;28397;44.552;-0.848;2023-06-26T13:53:25;25.90;99.90
42743;DHT22;28397;44.552;-0.848;2023-06-26T13:55:50;25.70;99.90
42743;DHT22;28397;44.552;-0.848;2023-06-26T13:58:16;25.70;99.90
42743;DHT22;28397;44.552;-0.848;2023-06-26T14:00:42;25.60;99.90
42743;DHT22;28397;44.552;-0.848;2023-06-26T14:03:10;25.80;99.90
42743;DHT22;28397;44.552;-0.848;2023-06-26T14:05:37;25.90;99.90
42743;DHT22;28397;44.552;-0.848;2023-06-26T14:08:04;26.00;99.90
42743;DHT22;28397;44.552;-0.848;2023-06-26T14:10:31;25.80;99.90
42743;DHT22;28397;44.552;-0.848;2023-06-26T14:12:59;25.80;99.90
42743;DHT22;28397;44.552;-0.848;2023-06-26T14:15:25;25.80;99.90
42743;DHT22;28397;44.552;-0.848;2023-06-26T14:17:50;25.80;99.90
42743;DHT22;28397;44.552;-0.848;2023-06-26T14:20:17;25.90;99.90
42743;DHT22;28397;44.552;-0.848;2023-06-26T14:22:45;26.00;99.90
42743;DHT22;28397;44.552;-0.848;2023-06-26T14:25:11;26.30;99.90
42743;DHT22;28397;44.552;-0.848;2023-06-26T14:27:38;26.50;99.90
42743;DHT22;28397;44.552;-0.848;2023-06-26T14:30:04;26.40;99.90
42743;DHT22;28397;44.552;-0.848;2023-06-26T14:32:30;26.60;99.90
42743;DHT22;28397;44.552;-0.848;2023-06-26T14:34:57;26.60;99.90
42743;DHT22;28397;44.552;-0.848;2023-06-26T14:37:22;26.60;99.90
42743;DHT22;28397;44.552;-0.848;2023-06-26T14:39:49;26.70;99.90
42743;DHT22;28397;44.552;-0.848;2023-06-26T14:42:15;27.00;99.90
42743;DHT22;28397;44.552;-0.848;2023-06-26T14:44:40;27.00;99.90
42743;DHT22;28397;44.552;-0.848;2023-06-26T14:47:06;26.90;99.90
42743;DHT22;28397;44.552;-0.848;2023-06-26T14:49:32;26.90;99.90
42743;DHT22;28397;44.552;-0.848;2023-06-26T14:51:58;26.90;99.90
42743;DHT22;28397;44.552;-0.848;2023-06-26T14:54:24;27.00;99.90
42743;DHT22;28397;44.552;-0.848;2023-06-26T14:56:49;27.20;99.90
42743;DHT22;28397;44.552;-0.848;2023-06-26T14:59:15;27.20;99.90
42743;DHT22;28397;44.552;-0.848;2023-06-26T15:01:41;27.30;99.90
42743;DHT22;28397;44.552;-0.848;2023-06-26T15:04:07;27.30;99.90
42743;DHT22;28397;44.552;-0.848;2023-06-26T15:06:33;27.00;99.90
42743;DHT22;28397;44.552;-0.848;2023-06-26T15:08:59;27.00;99.90
42743;DHT22;28397;44.552;-0.848;2023-06-26T15:11:25;26.90;99.90
42743;DHT22;28397;44.552;-0.848;2023-06-26T15:13:51;26.90;99.90
42743;DHT22;28397;44.552;-0.848;2023-06-26T15:16:17;26.80;99.90
42743;DHT22;28397;44.552;-0.848;2023-06-26T15:18:43;27.00;99.90
42743;DHT22;28397;44.552;-0.848;2023-06-26T15:21:09;26.70;99.90
42743;DHT22;28397;44.552;-0.848;2023-06-26T15:23:35;26.70;99.90
42743;DHT22;28397;44.552;-0.848;2023-06-26T15:26:01;26.60;99.90
42743;DHT22;28397;44.552;-0.848;2023-06-26T15:28:26;26.70;99.90
42743;DHT22;28397;44.552;-0.848;2023-06-26T15:30:52;26.70;99.90
42743;DHT22;28397;44.552;-0.848;2023-06-26T15:33:18;26.50;99.90